<?xml version="1.0" encoding="UTF-8" standalone="no" ?>
<gpx xmlns="http://www.topografix.com/GPX/1/1" xmlns:xsi="http://www.w3.org/2001/XMLSchema-instance" xsi:schemaLocation="http://www.topografix.com/GPX/1/1 http://www.topografix.com/GPX/1/1/gpx.xsd" version="1.1" creator="VisuGPX - https://www.visugpx.com">
  <metadata>
    <name>42  forez</name>
  </metadata>
  <trk>
    <name><![CDATA[J4  Salayes La Chapelle en Lafaye]]></name>
    <trkseg>
      <trkpt lat="45.41842" lon="3.92672">
        <ele>892</ele>
        <time>2018-09-26T14:36:35Z</time>
      </trkpt>
      <trkpt lat="45.41879" lon="3.92648">
        <ele>896</ele>
        <time>2018-09-26T14:37:35Z</time>
      </trkpt>
      <trkpt lat="45.41894" lon="3.92634">
        <ele>898</ele>
        <time>2018-09-26T14:38:35Z</time>
      </trkpt>
      <trkpt lat="45.41908" lon="3.92608">
        <ele>900</ele>
        <time>2018-09-26T14:39:35Z</time>
      </trkpt>
      <trkpt lat="45.41951" lon="3.92599">
        <ele>906</ele>
        <time>2018-09-26T14:40:35Z</time>
      </trkpt>
      <trkpt lat="45.42002" lon="3.92573">
        <ele>912</ele>
        <time>2018-09-26T14:41:35Z</time>
      </trkpt>
      <trkpt lat="45.42047" lon="3.92558">
        <ele>916</ele>
        <time>2018-09-26T14:42:35Z</time>
      </trkpt>
      <trkpt lat="45.42101" lon="3.92548">
        <ele>917</ele>
        <time>2018-09-26T14:43:35Z</time>
      </trkpt>
      <trkpt lat="45.4218" lon="3.92537">
        <ele>913</ele>
        <time>2018-09-26T14:44:35Z</time>
      </trkpt>
      <trkpt lat="45.42221" lon="3.92541">
        <ele>916</ele>
        <time>2018-09-26T14:45:35Z</time>
      </trkpt>
      <trkpt lat="45.4225" lon="3.92538">
        <ele>918</ele>
        <time>2018-09-26T14:46:35Z</time>
      </trkpt>
      <trkpt lat="45.42297" lon="3.92502">
        <ele>921</ele>
        <time>2018-09-26T14:47:35Z</time>
      </trkpt>
      <trkpt lat="45.42389" lon="3.92467">
        <ele>922</ele>
        <time>2018-09-26T14:48:35Z</time>
      </trkpt>
      <trkpt lat="45.42486" lon="3.9244">
        <ele>923</ele>
        <time>2018-09-26T14:49:35Z</time>
      </trkpt>
      <trkpt lat="45.42506" lon="3.92437">
        <ele>923</ele>
        <time>2018-09-26T14:50:35Z</time>
      </trkpt>
      <trkpt lat="45.42566" lon="3.92464">
        <ele>916</ele>
        <time>2018-09-26T14:51:35Z</time>
      </trkpt>
      <trkpt lat="45.42588" lon="3.92493">
        <ele>914</ele>
        <time>2018-09-26T14:52:35Z</time>
      </trkpt>
      <trkpt lat="45.42644" lon="3.92499">
        <ele>907</ele>
        <time>2018-09-26T14:53:35Z</time>
      </trkpt>
      <trkpt lat="45.42768" lon="3.92487">
        <ele>889</ele>
        <time>2018-09-26T14:54:35Z</time>
      </trkpt>
      <trkpt lat="45.42806" lon="3.92441">
        <ele>884</ele>
        <time>2018-09-26T14:55:35Z</time>
      </trkpt>
      <trkpt lat="45.42865" lon="3.92426">
        <ele>880</ele>
        <time>2018-09-26T14:56:35Z</time>
      </trkpt>
      <trkpt lat="45.42906" lon="3.92428">
        <ele>879</ele>
        <time>2018-09-26T14:57:35Z</time>
      </trkpt>
      <trkpt lat="45.43042" lon="3.9245">
        <ele>871</ele>
        <time>2018-09-26T14:58:35Z</time>
      </trkpt>
      <trkpt lat="45.43136" lon="3.92473">
        <ele>865</ele>
        <time>2018-09-26T14:59:35Z</time>
      </trkpt>
      <trkpt lat="45.43182" lon="3.925">
        <ele>865</ele>
        <time>2018-09-26T15:00:35Z</time>
      </trkpt>
      <trkpt lat="45.43204" lon="3.92582">
        <ele>869</ele>
        <time>2018-09-26T15:01:35Z</time>
      </trkpt>
      <trkpt lat="45.43218" lon="3.92625">
        <ele>871</ele>
        <time>2018-09-26T15:02:35Z</time>
      </trkpt>
      <trkpt lat="45.4325" lon="3.92639">
        <ele>866</ele>
        <time>2018-09-26T15:03:35Z</time>
      </trkpt>
      <trkpt lat="45.43278" lon="3.92664">
        <ele>867</ele>
        <time>2018-09-26T15:04:35Z</time>
      </trkpt>
      <trkpt lat="45.43288" lon="3.92696">
        <ele>873</ele>
        <time>2018-09-26T15:05:35Z</time>
      </trkpt>
      <trkpt lat="45.43293" lon="3.92724">
        <ele>878</ele>
        <time>2018-09-26T15:06:35Z</time>
      </trkpt>
      <trkpt lat="45.4331" lon="3.92752">
        <ele>882</ele>
        <time>2018-09-26T15:07:35Z</time>
      </trkpt>
      <trkpt lat="45.43325" lon="3.92761">
        <ele>882</ele>
        <time>2018-09-26T15:08:35Z</time>
      </trkpt>
      <trkpt lat="45.43363" lon="3.92761">
        <ele>878</ele>
        <time>2018-09-26T15:09:35Z</time>
      </trkpt>
      <trkpt lat="45.43395" lon="3.92805">
        <ele>878</ele>
        <time>2018-09-26T15:10:35Z</time>
      </trkpt>
      <trkpt lat="45.43396" lon="3.9284">
        <ele>880</ele>
        <time>2018-09-26T15:11:35Z</time>
      </trkpt>
      <trkpt lat="45.43392" lon="3.9289">
        <ele>881</ele>
        <time>2018-09-26T15:12:35Z</time>
      </trkpt>
      <trkpt lat="45.43392" lon="3.92937">
        <ele>881</ele>
        <time>2018-09-26T15:13:35Z</time>
      </trkpt>
      <trkpt lat="45.43405" lon="3.92963">
        <ele>879</ele>
        <time>2018-09-26T15:14:35Z</time>
      </trkpt>
      <trkpt lat="45.43423" lon="3.92986">
        <ele>877</ele>
        <time>2018-09-26T15:15:35Z</time>
      </trkpt>
      <trkpt lat="45.43433" lon="3.93013">
        <ele>878</ele>
        <time>2018-09-26T15:16:35Z</time>
      </trkpt>
      <trkpt lat="45.43465" lon="3.93065">
        <ele>877</ele>
        <time>2018-09-26T15:17:35Z</time>
      </trkpt>
      <trkpt lat="45.43467" lon="3.93101">
        <ele>878</ele>
        <time>2018-09-26T15:18:35Z</time>
      </trkpt>
      <trkpt lat="45.43481" lon="3.9313">
        <ele>877</ele>
        <time>2018-09-26T15:19:35Z</time>
      </trkpt>
      <trkpt lat="45.43489" lon="3.93177">
        <ele>878</ele>
        <time>2018-09-26T15:20:35Z</time>
      </trkpt>
      <trkpt lat="45.43518" lon="3.93205">
        <ele>877</ele>
        <time>2018-09-26T15:21:35Z</time>
      </trkpt>
      <trkpt lat="45.43555" lon="3.93205">
        <ele>873</ele>
        <time>2018-09-26T15:22:35Z</time>
      </trkpt>
      <trkpt lat="45.43606" lon="3.93214">
        <ele>869</ele>
        <time>2018-09-26T15:23:35Z</time>
      </trkpt>
      <trkpt lat="45.43662" lon="3.93185">
        <ele>867</ele>
        <time>2018-09-26T15:24:35Z</time>
      </trkpt>
      <trkpt lat="45.43719" lon="3.9318">
        <ele>867</ele>
        <time>2018-09-26T15:25:35Z</time>
      </trkpt>
      <trkpt lat="45.43742" lon="3.93157">
        <ele>865</ele>
        <time>2018-09-26T15:26:35Z</time>
      </trkpt>
      <trkpt lat="45.4375" lon="3.93106">
        <ele>866</ele>
        <time>2018-09-26T15:27:35Z</time>
      </trkpt>
      <trkpt lat="45.43759" lon="3.93072">
        <ele>867</ele>
        <time>2018-09-26T15:28:35Z</time>
      </trkpt>
      <trkpt lat="45.43781" lon="3.9303">
        <ele>869</ele>
        <time>2018-09-26T15:29:35Z</time>
      </trkpt>
      <trkpt lat="45.43786" lon="3.93006">
        <ele>870</ele>
        <time>2018-09-26T15:30:35Z</time>
      </trkpt>
      <trkpt lat="45.43799" lon="3.92928">
        <ele>872</ele>
        <time>2018-09-26T15:31:35Z</time>
      </trkpt>
      <trkpt lat="45.43793" lon="3.92913">
        <ele>871</ele>
        <time>2018-09-26T15:32:35Z</time>
      </trkpt>
      <trkpt lat="45.4381" lon="3.92883">
        <ele>874</ele>
        <time>2018-09-26T15:33:35Z</time>
      </trkpt>
      <trkpt lat="45.43819" lon="3.92852">
        <ele>877</ele>
        <time>2018-09-26T15:34:35Z</time>
      </trkpt>
      <trkpt lat="45.43867" lon="3.92792">
        <ele>883</ele>
        <time>2018-09-26T15:35:35Z</time>
      </trkpt>
      <trkpt lat="45.43893" lon="3.92746">
        <ele>888</ele>
        <time>2018-09-26T15:36:35Z</time>
      </trkpt>
      <trkpt lat="45.43917" lon="3.92692">
        <ele>892</ele>
        <time>2018-09-26T15:37:35Z</time>
      </trkpt>
      <trkpt lat="45.43946" lon="3.92639">
        <ele>897</ele>
        <time>2018-09-26T15:38:35Z</time>
      </trkpt>
      <trkpt lat="45.43964" lon="3.92601">
        <ele>901</ele>
        <time>2018-09-26T15:39:35Z</time>
      </trkpt>
      <trkpt lat="45.43978" lon="3.92582">
        <ele>903</ele>
        <time>2018-09-26T15:40:35Z</time>
      </trkpt>
      <trkpt lat="45.44055" lon="3.92548">
        <ele>908</ele>
        <time>2018-09-26T15:41:35Z</time>
      </trkpt>
      <trkpt lat="45.4408" lon="3.92531">
        <ele>911</ele>
        <time>2018-09-26T15:42:35Z</time>
      </trkpt>
      <trkpt lat="45.4413" lon="3.92493">
        <ele>917</ele>
        <time>2018-09-26T15:43:35Z</time>
      </trkpt>
      <trkpt lat="45.44166" lon="3.9246">
        <ele>923</ele>
        <time>2018-09-26T15:44:35Z</time>
      </trkpt>
      <trkpt lat="45.44221" lon="3.92411">
        <ele>927</ele>
        <time>2018-09-26T15:45:35Z</time>
      </trkpt>
      <trkpt lat="45.44265" lon="3.92382">
        <ele>928</ele>
        <time>2018-09-26T15:46:35Z</time>
      </trkpt>
      <trkpt lat="45.44303" lon="3.92375">
        <ele>930</ele>
        <time>2018-09-26T15:47:35Z</time>
      </trkpt>
      <trkpt lat="45.44356" lon="3.92367">
        <ele>933</ele>
        <time>2018-09-26T15:48:35Z</time>
      </trkpt>
      <trkpt lat="45.44408" lon="3.92365">
        <ele>934</ele>
        <time>2018-09-26T15:49:35Z</time>
      </trkpt>
      <trkpt lat="45.44451" lon="3.92364">
        <ele>934</ele>
        <time>2018-09-26T15:50:35Z</time>
      </trkpt>
      <trkpt lat="45.44499" lon="3.92372">
        <ele>934</ele>
        <time>2018-09-26T15:51:35Z</time>
      </trkpt>
      <trkpt lat="45.44529" lon="3.92388">
        <ele>930</ele>
        <time>2018-09-26T15:52:35Z</time>
      </trkpt>
      <trkpt lat="45.44565" lon="3.92422">
        <ele>928</ele>
        <time>2018-09-26T15:53:35Z</time>
      </trkpt>
      <trkpt lat="45.44563" lon="3.92385">
        <ele>926</ele>
        <time>2018-09-26T15:54:35Z</time>
      </trkpt>
      <trkpt lat="45.44561" lon="3.92341">
        <ele>924</ele>
        <time>2018-09-26T15:55:35Z</time>
      </trkpt>
      <trkpt lat="45.44581" lon="3.92297">
        <ele>921</ele>
        <time>2018-09-26T15:56:35Z</time>
      </trkpt>
      <trkpt lat="45.44594" lon="3.92253">
        <ele>921</ele>
        <time>2018-09-26T15:57:35Z</time>
      </trkpt>
      <trkpt lat="45.44599" lon="3.92223">
        <ele>919</ele>
        <time>2018-09-26T15:58:35Z</time>
      </trkpt>
      <trkpt lat="45.44598" lon="3.92197">
        <ele>918</ele>
        <time>2018-09-26T15:59:35Z</time>
      </trkpt>
      <trkpt lat="45.4459" lon="3.92171">
        <ele>918</ele>
        <time>2018-09-26T16:00:35Z</time>
      </trkpt>
      <trkpt lat="45.44583" lon="3.9213">
        <ele>917</ele>
        <time>2018-09-26T16:01:35Z</time>
      </trkpt>
      <trkpt lat="45.44573" lon="3.92089">
        <ele>915</ele>
        <time>2018-09-26T16:02:35Z</time>
      </trkpt>
      <trkpt lat="45.44554" lon="3.9205">
        <ele>910</ele>
        <time>2018-09-26T16:03:35Z</time>
      </trkpt>
      <trkpt lat="45.44546" lon="3.92027">
        <ele>907</ele>
        <time>2018-09-26T16:04:35Z</time>
      </trkpt>
      <trkpt lat="45.44542" lon="3.92013">
        <ele>904</ele>
        <time>2018-09-26T16:05:35Z</time>
      </trkpt>
      <trkpt lat="45.44512" lon="3.91998">
        <ele>906</ele>
        <time>2018-09-26T16:06:35Z</time>
      </trkpt>
      <trkpt lat="45.4451" lon="3.9198">
        <ele>904</ele>
        <time>2018-09-26T16:07:35Z</time>
      </trkpt>
      <trkpt lat="45.44492" lon="3.91963">
        <ele>903</ele>
        <time>2018-09-26T16:08:35Z</time>
      </trkpt>
      <trkpt lat="45.44458" lon="3.9191">
        <ele>896</ele>
        <time>2018-09-26T16:09:35Z</time>
      </trkpt>
      <trkpt lat="45.44426" lon="3.91894">
        <ele>894</ele>
        <time>2018-09-26T16:10:35Z</time>
      </trkpt>
      <trkpt lat="45.44392" lon="3.91875">
        <ele>892</ele>
        <time>2018-09-26T16:11:35Z</time>
      </trkpt>
      <trkpt lat="45.44362" lon="3.91869">
        <ele>892</ele>
        <time>2018-09-26T16:12:35Z</time>
      </trkpt>
      <trkpt lat="45.44354" lon="3.91863">
        <ele>891</ele>
        <time>2018-09-26T16:13:35Z</time>
      </trkpt>
      <trkpt lat="45.44344" lon="3.91881">
        <ele>895</ele>
        <time>2018-09-26T16:14:35Z</time>
      </trkpt>
      <trkpt lat="45.44295" lon="3.91737">
        <ele>882</ele>
        <time>2018-09-26T16:15:35Z</time>
      </trkpt>
      <trkpt lat="45.44277" lon="3.91684">
        <ele>883</ele>
        <time>2018-09-26T16:16:35Z</time>
      </trkpt>
      <trkpt lat="45.44261" lon="3.91637">
        <ele>883</ele>
        <time>2018-09-26T16:17:35Z</time>
      </trkpt>
      <trkpt lat="45.44249" lon="3.91598">
        <ele>883</ele>
        <time>2018-09-26T16:18:35Z</time>
      </trkpt>
      <trkpt lat="45.44231" lon="3.91531">
        <ele>879</ele>
        <time>2018-09-26T16:19:35Z</time>
      </trkpt>
      <trkpt lat="45.4422" lon="3.91476">
        <ele>873</ele>
        <time>2018-09-26T16:20:35Z</time>
      </trkpt>
      <trkpt lat="45.442" lon="3.91438">
        <ele>866</ele>
        <time>2018-09-26T16:21:35Z</time>
      </trkpt>
      <trkpt lat="45.44177" lon="3.9141">
        <ele>861</ele>
        <time>2018-09-26T16:22:35Z</time>
      </trkpt>
      <trkpt lat="45.44154" lon="3.9141">
        <ele>860</ele>
        <time>2018-09-26T16:23:35Z</time>
      </trkpt>
      <trkpt lat="45.44107" lon="3.91393">
        <ele>856</ele>
        <time>2018-09-26T16:24:35Z</time>
      </trkpt>
      <trkpt lat="45.44095" lon="3.91385">
        <ele>854</ele>
        <time>2018-09-26T16:25:35Z</time>
      </trkpt>
      <trkpt lat="45.44091" lon="3.91337">
        <ele>846</ele>
        <time>2018-09-26T16:26:35Z</time>
      </trkpt>
      <trkpt lat="45.44083" lon="3.91296">
        <ele>844</ele>
        <time>2018-09-26T16:27:35Z</time>
      </trkpt>
      <trkpt lat="45.4408" lon="3.91267">
        <ele>843</ele>
        <time>2018-09-26T16:28:35Z</time>
      </trkpt>
      <trkpt lat="45.44073" lon="3.91246">
        <ele>843</ele>
        <time>2018-09-26T16:29:35Z</time>
      </trkpt>
      <trkpt lat="45.44063" lon="3.91223">
        <ele>844</ele>
        <time>2018-09-26T16:30:35Z</time>
      </trkpt>
      <trkpt lat="45.44057" lon="3.912">
        <ele>845</ele>
        <time>2018-09-26T16:31:35Z</time>
      </trkpt>
      <trkpt lat="45.44045" lon="3.9117">
        <ele>847</ele>
        <time>2018-09-26T16:32:35Z</time>
      </trkpt>
      <trkpt lat="45.44043" lon="3.91135">
        <ele>851</ele>
        <time>2018-09-26T16:33:35Z</time>
      </trkpt>
      <trkpt lat="45.44045" lon="3.91108">
        <ele>854</ele>
        <time>2018-09-26T16:34:35Z</time>
      </trkpt>
      <trkpt lat="45.44039" lon="3.91082">
        <ele>858</ele>
        <time>2018-09-26T16:35:35Z</time>
      </trkpt>
      <trkpt lat="45.44026" lon="3.91065">
        <ele>863</ele>
        <time>2018-09-26T16:36:35Z</time>
      </trkpt>
      <trkpt lat="45.44004" lon="3.91055">
        <ele>867</ele>
        <time>2018-09-26T16:37:35Z</time>
      </trkpt>
      <trkpt lat="45.4398" lon="3.91038">
        <ele>871</ele>
        <time>2018-09-26T16:38:35Z</time>
      </trkpt>
      <trkpt lat="45.43956" lon="3.91032">
        <ele>873</ele>
        <time>2018-09-26T16:39:35Z</time>
      </trkpt>
      <trkpt lat="45.43918" lon="3.91017">
        <ele>876</ele>
        <time>2018-09-26T16:40:35Z</time>
      </trkpt>
      <trkpt lat="45.43901" lon="3.90988">
        <ele>879</ele>
        <time>2018-09-26T16:41:35Z</time>
      </trkpt>
      <trkpt lat="45.43963" lon="3.90977">
        <ele>882</ele>
        <time>2018-09-26T16:42:35Z</time>
      </trkpt>
      <trkpt lat="45.43977" lon="3.90913">
        <ele>891</ele>
        <time>2018-09-26T16:43:35Z</time>
      </trkpt>
      <trkpt lat="45.44008" lon="3.90853">
        <ele>900</ele>
        <time>2018-09-26T16:44:35Z</time>
      </trkpt>
      <trkpt lat="45.44071" lon="3.90819">
        <ele>901</ele>
        <time>2018-09-26T16:45:35Z</time>
      </trkpt>
      <trkpt lat="45.44163" lon="3.90801">
        <ele>902</ele>
        <time>2018-09-26T16:46:35Z</time>
      </trkpt>
      <trkpt lat="45.44293" lon="3.90819">
        <ele>896</ele>
        <time>2018-09-26T16:47:35Z</time>
      </trkpt>
      <trkpt lat="45.4436" lon="3.90844">
        <ele>885</ele>
        <time>2018-09-26T16:48:35Z</time>
      </trkpt>
      <trkpt lat="45.44398" lon="3.90836">
        <ele>884</ele>
        <time>2018-09-26T16:49:35Z</time>
      </trkpt>
      <trkpt lat="45.44434" lon="3.90815">
        <ele>887</ele>
        <time>2018-09-26T16:50:35Z</time>
      </trkpt>
      <trkpt lat="45.44581" lon="3.90813">
        <ele>872</ele>
        <time>2018-09-26T16:51:35Z</time>
      </trkpt>
      <trkpt lat="45.44668" lon="3.90834">
        <ele>869</ele>
        <time>2018-09-26T16:52:35Z</time>
      </trkpt>
      <trkpt lat="45.44726" lon="3.90859">
        <ele>872</ele>
        <time>2018-09-26T16:53:35Z</time>
      </trkpt>
      <trkpt lat="45.44761" lon="3.90868">
        <ele>873</ele>
        <time>2018-09-26T16:54:35Z</time>
      </trkpt>
      <trkpt lat="45.44805" lon="3.90857">
        <ele>873</ele>
        <time>2018-09-26T16:55:35Z</time>
      </trkpt>
      <trkpt lat="45.44838" lon="3.90825">
        <ele>876</ele>
        <time>2018-09-26T16:56:35Z</time>
      </trkpt>
      <trkpt lat="45.44889" lon="3.90789">
        <ele>875</ele>
        <time>2018-09-26T16:57:35Z</time>
      </trkpt>
      <trkpt lat="45.4493" lon="3.90763">
        <ele>873</ele>
        <time>2018-09-26T16:58:35Z</time>
      </trkpt>
      <trkpt lat="45.44968" lon="3.90743">
        <ele>870</ele>
        <time>2018-09-26T16:59:35Z</time>
      </trkpt>
      <trkpt lat="45.45008" lon="3.90734">
        <ele>867</ele>
        <time>2018-09-26T17:00:35Z</time>
      </trkpt>
      <trkpt lat="45.45042" lon="3.90736">
        <ele>865</ele>
        <time>2018-09-26T17:01:35Z</time>
      </trkpt>
      <trkpt lat="45.45088" lon="3.90693">
        <ele>866</ele>
        <time>2018-09-26T17:02:35Z</time>
      </trkpt>
      <trkpt lat="45.45212" lon="3.90563">
        <ele>866</ele>
        <time>2018-09-26T17:03:35Z</time>
      </trkpt>
      <trkpt lat="45.45219" lon="3.90592">
        <ele>863</ele>
        <time>2018-09-26T17:04:35Z</time>
      </trkpt>
      <trkpt lat="45.45227" lon="3.90619">
        <ele>862</ele>
        <time>2018-09-26T17:05:35Z</time>
      </trkpt>
      <trkpt lat="45.4523" lon="3.90643">
        <ele>861</ele>
        <time>2018-09-26T17:06:35Z</time>
      </trkpt>
      <trkpt lat="45.45244" lon="3.90654">
        <ele>862</ele>
        <time>2018-09-26T17:07:35Z</time>
      </trkpt>
      <trkpt lat="45.45272" lon="3.90625">
        <ele>866</ele>
        <time>2018-09-26T17:08:35Z</time>
      </trkpt>
      <trkpt lat="45.45298" lon="3.9061">
        <ele>870</ele>
        <time>2018-09-26T17:09:35Z</time>
      </trkpt>
      <trkpt lat="45.45297" lon="3.90648">
        <ele>872</ele>
        <time>2018-09-26T17:10:35Z</time>
      </trkpt>
      <trkpt lat="45.45293" lon="3.90671">
        <ele>872</ele>
        <time>2018-09-26T17:11:35Z</time>
      </trkpt>
      <trkpt lat="45.45285" lon="3.90701">
        <ele>870</ele>
        <time>2018-09-26T17:12:35Z</time>
      </trkpt>
      <trkpt lat="45.45298" lon="3.90725">
        <ele>872</ele>
        <time>2018-09-26T17:13:35Z</time>
      </trkpt>
      <trkpt lat="45.45316" lon="3.90751">
        <ele>876</ele>
        <time>2018-09-26T17:14:35Z</time>
      </trkpt>
      <trkpt lat="45.45349" lon="3.90777">
        <ele>879</ele>
        <time>2018-09-26T17:15:35Z</time>
      </trkpt>
      <trkpt lat="45.45376" lon="3.90816">
        <ele>876</ele>
        <time>2018-09-26T17:16:35Z</time>
      </trkpt>
      <trkpt lat="45.45398" lon="3.90816">
        <ele>878</ele>
        <time>2018-09-26T17:17:35Z</time>
      </trkpt>
      <trkpt lat="45.45429" lon="3.90798">
        <ele>882</ele>
        <time>2018-09-26T17:18:35Z</time>
      </trkpt>
      <trkpt lat="45.45461" lon="3.90771">
        <ele>883</ele>
        <time>2018-09-26T17:19:35Z</time>
      </trkpt>
      <trkpt lat="45.45484" lon="3.90746">
        <ele>882</ele>
        <time>2018-09-26T17:20:35Z</time>
      </trkpt>
      <trkpt lat="45.4552" lon="3.90734">
        <ele>881</ele>
        <time>2018-09-26T17:21:35Z</time>
      </trkpt>
      <trkpt lat="45.45543" lon="3.9071">
        <ele>883</ele>
        <time>2018-09-26T17:22:35Z</time>
      </trkpt>
      <trkpt lat="45.45578" lon="3.90698">
        <ele>883</ele>
        <time>2018-09-26T17:23:35Z</time>
      </trkpt>
      <trkpt lat="45.45613" lon="3.90699">
        <ele>883</ele>
        <time>2018-09-26T17:24:35Z</time>
      </trkpt>
      <trkpt lat="45.45639" lon="3.90719">
        <ele>882</ele>
        <time>2018-09-26T17:25:35Z</time>
      </trkpt>
      <trkpt lat="45.45682" lon="3.90721">
        <ele>882</ele>
        <time>2018-09-26T17:26:35Z</time>
      </trkpt>
      <trkpt lat="45.45713" lon="3.90724">
        <ele>883</ele>
        <time>2018-09-26T17:27:35Z</time>
      </trkpt>
      <trkpt lat="45.45745" lon="3.90713">
        <ele>884</ele>
        <time>2018-09-26T17:28:35Z</time>
      </trkpt>
      <trkpt lat="45.45774" lon="3.90687">
        <ele>887</ele>
        <time>2018-09-26T17:29:35Z</time>
      </trkpt>
      <trkpt lat="45.45755" lon="3.90674">
        <ele>886</ele>
        <time>2018-09-26T17:30:35Z</time>
      </trkpt>
      <trkpt lat="45.4573" lon="3.90646">
        <ele>886</ele>
        <time>2018-09-26T17:31:35Z</time>
      </trkpt>
      <trkpt lat="45.45709" lon="3.90628">
        <ele>886</ele>
        <time>2018-09-26T17:32:35Z</time>
      </trkpt>
      <trkpt lat="45.4571" lon="3.90601">
        <ele>887</ele>
        <time>2018-09-26T17:33:35Z</time>
      </trkpt>
      <trkpt lat="45.45717" lon="3.90549">
        <ele>888</ele>
        <time>2018-09-26T17:34:35Z</time>
      </trkpt>
      <trkpt lat="45.45731" lon="3.90505">
        <ele>888</ele>
        <time>2018-09-26T17:35:35Z</time>
      </trkpt>
      <trkpt lat="45.45764" lon="3.90464">
        <ele>889</ele>
        <time>2018-09-26T17:36:35Z</time>
      </trkpt>
      <trkpt lat="45.4578" lon="3.90455">
        <ele>890</ele>
        <time>2018-09-26T17:37:35Z</time>
      </trkpt>
      <trkpt lat="45.45804" lon="3.90469">
        <ele>892</ele>
        <time>2018-09-26T17:38:35Z</time>
      </trkpt>
      <trkpt lat="45.45896" lon="3.90344">
        <ele>900</ele>
        <time>2018-09-26T17:39:35Z</time>
      </trkpt>
      <trkpt lat="45.45987" lon="3.90232">
        <ele>905</ele>
        <time>2018-09-26T17:40:35Z</time>
      </trkpt>
      <trkpt lat="45.46043" lon="3.90132">
        <ele>902</ele>
        <time>2018-09-26T17:41:35Z</time>
      </trkpt>
      <trkpt lat="45.46105" lon="3.90115">
        <ele>905</ele>
        <time>2018-09-26T17:42:35Z</time>
      </trkpt>
      <trkpt lat="45.46148" lon="3.9012">
        <ele>908</ele>
        <time>2018-09-26T17:43:35Z</time>
      </trkpt>
      <trkpt lat="45.46182" lon="3.90137">
        <ele>912</ele>
        <time>2018-09-26T17:44:35Z</time>
      </trkpt>
      <trkpt lat="45.46217" lon="3.90153">
        <ele>913</ele>
        <time>2018-09-26T17:45:35Z</time>
      </trkpt>
      <trkpt lat="45.46255" lon="3.90155">
        <ele>913</ele>
        <time>2018-09-26T17:46:35Z</time>
      </trkpt>
      <trkpt lat="45.46293" lon="3.90138">
        <ele>912</ele>
        <time>2018-09-26T17:47:35Z</time>
      </trkpt>
      <trkpt lat="45.46363" lon="3.90155">
        <ele>919</ele>
        <time>2018-09-26T17:48:35Z</time>
      </trkpt>
      <trkpt lat="45.46442" lon="3.9017">
        <ele>926</ele>
        <time>2018-09-26T17:49:35Z</time>
      </trkpt>
      <trkpt lat="45.46493" lon="3.90162">
        <ele>927</ele>
        <time>2018-09-26T17:50:35Z</time>
      </trkpt>
      <trkpt lat="45.46532" lon="3.90184">
        <ele>929</ele>
        <time>2018-09-26T17:51:35Z</time>
      </trkpt>
      <trkpt lat="45.46527" lon="3.90206">
        <ele>931</ele>
        <time>2018-09-26T17:52:35Z</time>
      </trkpt>
      <trkpt lat="45.46532" lon="3.90241">
        <ele>935</ele>
        <time>2018-09-26T17:53:35Z</time>
      </trkpt>
      <trkpt lat="45.46536" lon="3.90258">
        <ele>937</ele>
        <time>2018-09-26T17:54:35Z</time>
      </trkpt>
      <trkpt lat="45.46553" lon="3.90291">
        <ele>942</ele>
        <time>2018-09-26T17:55:35Z</time>
      </trkpt>
      <trkpt lat="45.466" lon="3.90385">
        <ele>953</ele>
        <time>2018-09-26T17:56:35Z</time>
      </trkpt>
      <trkpt lat="45.46609" lon="3.90417">
        <ele>956</ele>
        <time>2018-09-26T17:57:35Z</time>
      </trkpt>
      <trkpt lat="45.46615" lon="3.90449">
        <ele>956</ele>
        <time>2018-09-26T17:58:35Z</time>
      </trkpt>
      <trkpt lat="45.46617" lon="3.90486">
        <ele>957</ele>
        <time>2018-09-26T17:59:35Z</time>
      </trkpt>
      <trkpt lat="45.46596" lon="3.9053">
        <ele>958</ele>
        <time>2018-09-26T18:00:35Z</time>
      </trkpt>
      <trkpt lat="45.4657" lon="3.9056">
        <ele>959</ele>
        <time>2018-09-26T18:01:35Z</time>
      </trkpt>
      <trkpt lat="45.46554" lon="3.90578">
        <ele>959</ele>
        <time>2018-09-26T18:02:35Z</time>
      </trkpt>
      <trkpt lat="45.46529" lon="3.90593">
        <ele>960</ele>
        <time>2018-09-26T18:03:35Z</time>
      </trkpt>
      <trkpt lat="45.46526" lon="3.90631">
        <ele>954</ele>
        <time>2018-09-26T18:04:35Z</time>
      </trkpt>
      <trkpt lat="45.46508" lon="3.90671">
        <ele>949</ele>
        <time>2018-09-26T18:05:35Z</time>
      </trkpt>
      <trkpt lat="45.46512" lon="3.90722">
        <ele>940</ele>
        <time>2018-09-26T18:06:35Z</time>
      </trkpt>
      <trkpt lat="45.4651" lon="3.90781">
        <ele>933</ele>
        <time>2018-09-26T18:07:35Z</time>
      </trkpt>
      <trkpt lat="45.4652" lon="3.90844">
        <ele>931</ele>
        <time>2018-09-26T18:08:35Z</time>
      </trkpt>
      <trkpt lat="45.46556" lon="3.90845">
        <ele>933</ele>
        <time>2018-09-26T18:09:35Z</time>
      </trkpt>
      <trkpt lat="45.46595" lon="3.9086">
        <ele>935</ele>
        <time>2018-09-26T18:10:35Z</time>
      </trkpt>
      <trkpt lat="45.46613" lon="3.90888">
        <ele>937</ele>
        <time>2018-09-26T18:11:35Z</time>
      </trkpt>
      <trkpt lat="45.46631" lon="3.90923">
        <ele>939</ele>
        <time>2018-09-26T18:12:35Z</time>
      </trkpt>
      <trkpt lat="45.46671" lon="3.90947">
        <ele>942</ele>
        <time>2018-09-26T18:13:35Z</time>
      </trkpt>
      <trkpt lat="45.4673" lon="3.9097">
        <ele>957</ele>
        <time>2018-09-26T18:14:35Z</time>
      </trkpt>
      <trkpt lat="45.4679" lon="3.90929">
        <ele>964</ele>
        <time>2018-09-26T18:15:35Z</time>
      </trkpt>
      <trkpt lat="45.46886" lon="3.90923">
        <ele>973</ele>
        <time>2018-09-26T18:16:35Z</time>
      </trkpt>
      <trkpt lat="45.46933" lon="3.90885">
        <ele>969</ele>
        <time>2018-09-26T18:17:35Z</time>
      </trkpt>
      <trkpt lat="45.46992" lon="3.90891">
        <ele>967</ele>
        <time>2018-09-26T18:18:35Z</time>
      </trkpt>
      <trkpt lat="45.46972" lon="3.90944">
        <ele>971</ele>
        <time>2018-09-26T18:19:35Z</time>
      </trkpt>
      <trkpt lat="45.46961" lon="3.90974">
        <ele>972</ele>
        <time>2018-09-26T18:20:35Z</time>
      </trkpt>
      <trkpt lat="45.46957" lon="3.91021">
        <ele>972</ele>
        <time>2018-09-26T18:21:35Z</time>
      </trkpt>
      <trkpt lat="45.46963" lon="3.91042">
        <ele>971</ele>
        <time>2018-09-26T18:22:35Z</time>
      </trkpt>
      <trkpt lat="45.46968" lon="3.91092">
        <ele>971</ele>
        <time>2018-09-26T18:23:35Z</time>
      </trkpt>
      <trkpt lat="45.4698" lon="3.91132">
        <ele>971</ele>
        <time>2018-09-26T18:24:35Z</time>
      </trkpt>
      <trkpt lat="45.47036" lon="3.91094">
        <ele>972</ele>
        <time>2018-09-26T18:25:35Z</time>
      </trkpt>
      <trkpt lat="45.47067" lon="3.91085">
        <ele>971</ele>
        <time>2018-09-26T18:26:35Z</time>
      </trkpt>
      <trkpt lat="45.47083" lon="3.91112">
        <ele>974</ele>
        <time>2018-09-26T18:27:35Z</time>
      </trkpt>
      <trkpt lat="45.471" lon="3.91143">
        <ele>979</ele>
        <time>2018-09-26T18:28:35Z</time>
      </trkpt>
      <trkpt lat="45.47166" lon="3.91147">
        <ele>983</ele>
        <time>2018-09-26T18:29:35Z</time>
      </trkpt>
      <trkpt lat="45.47183" lon="3.91112">
        <ele>979</ele>
        <time>2018-09-26T18:30:35Z</time>
      </trkpt>
      <trkpt lat="45.47215" lon="3.91089">
        <ele>977</ele>
        <time>2018-09-26T18:31:35Z</time>
      </trkpt>
      <trkpt lat="45.47222" lon="3.91111">
        <ele>980</ele>
        <time>2018-09-26T18:32:35Z</time>
      </trkpt>
      <trkpt lat="45.47217" lon="3.91152">
        <ele>984</ele>
        <time>2018-09-26T18:33:35Z</time>
      </trkpt>
      <trkpt lat="45.47207" lon="3.91187">
        <ele>987</ele>
        <time>2018-09-26T18:34:35Z</time>
      </trkpt>
      <trkpt lat="45.47236" lon="3.91234">
        <ele>990</ele>
        <time>2018-09-26T18:35:35Z</time>
      </trkpt>
      <trkpt lat="45.47239" lon="3.91256">
        <ele>991</ele>
        <time>2018-09-26T18:36:35Z</time>
      </trkpt>
      <trkpt lat="45.47258" lon="3.91275">
        <ele>993</ele>
        <time>2018-09-26T18:37:35Z</time>
      </trkpt>
      <trkpt lat="45.47259" lon="3.91299">
        <ele>995</ele>
        <time>2018-09-26T18:38:35Z</time>
      </trkpt>
      <trkpt lat="45.4726" lon="3.91329">
        <ele>998</ele>
        <time>2018-09-26T18:39:35Z</time>
      </trkpt>
      <trkpt lat="45.47266" lon="3.91359">
        <ele>1001</ele>
        <time>2018-09-26T18:40:35Z</time>
      </trkpt>
      <trkpt lat="45.47278" lon="3.91393">
        <ele>1004</ele>
        <time>2018-09-26T18:41:35Z</time>
      </trkpt>
      <trkpt lat="45.47284" lon="3.91432">
        <ele>1005</ele>
        <time>2018-09-26T18:42:35Z</time>
      </trkpt>
      <trkpt lat="45.47321" lon="3.91466">
        <ele>1006</ele>
        <time>2018-09-26T18:43:35Z</time>
      </trkpt>
      <trkpt lat="45.47342" lon="3.91488">
        <ele>1006</ele>
        <time>2018-09-26T18:44:35Z</time>
      </trkpt>
      <trkpt lat="45.47343" lon="3.91502">
        <ele>1007</ele>
        <time>2018-09-26T18:45:35Z</time>
      </trkpt>
      <trkpt lat="45.47372" lon="3.91542">
        <ele>1010</ele>
        <time>2018-09-26T18:46:35Z</time>
      </trkpt>
      <trkpt lat="45.47406" lon="3.91599">
        <ele>1017</ele>
        <time>2018-09-26T18:47:35Z</time>
      </trkpt>
      <trkpt lat="45.47444" lon="3.91674">
        <ele>1024</ele>
        <time>2018-09-26T18:48:35Z</time>
      </trkpt>
      <trkpt lat="45.4746" lon="3.9179">
        <ele>1030</ele>
        <time>2018-09-26T18:49:35Z</time>
      </trkpt>
      <trkpt lat="45.47482" lon="3.91897">
        <ele>1040</ele>
        <time>2018-09-26T18:50:35Z</time>
      </trkpt>
      <trkpt lat="45.47495" lon="3.91927">
        <ele>1045</ele>
        <time>2018-09-26T18:51:35Z</time>
      </trkpt>
      <trkpt lat="45.47493" lon="3.92085">
        <ele>1061</ele>
        <time>2018-09-26T18:52:35Z</time>
      </trkpt>
      <trkpt lat="45.47497" lon="3.92129">
        <ele>1064</ele>
        <time>2018-09-26T18:53:35Z</time>
      </trkpt>
      <trkpt lat="45.47502" lon="3.92152">
        <ele>1065</ele>
        <time>2018-09-26T18:54:35Z</time>
      </trkpt>
      <trkpt lat="45.47521" lon="3.92183">
        <ele>1067</ele>
        <time>2018-09-26T18:55:35Z</time>
      </trkpt>
      <trkpt lat="45.47534" lon="3.92247">
        <ele>1074</ele>
        <time>2018-09-26T18:56:35Z</time>
      </trkpt>
      <trkpt lat="45.47526" lon="3.92315">
        <ele>1080</ele>
        <time>2018-09-26T18:57:35Z</time>
      </trkpt>
      <trkpt lat="45.47502" lon="3.92352">
        <ele>1081</ele>
        <time>2018-09-26T18:58:35Z</time>
      </trkpt>
      <trkpt lat="45.47484" lon="3.92391">
        <ele>1082</ele>
        <time>2018-09-26T18:59:35Z</time>
      </trkpt>
      <trkpt lat="45.47469" lon="3.9242">
        <ele>1082</ele>
        <time>2018-09-26T19:00:35Z</time>
      </trkpt>
      <trkpt lat="45.47446" lon="3.92446">
        <ele>1082</ele>
        <time>2018-09-26T19:01:35Z</time>
      </trkpt>
      <trkpt lat="45.47421" lon="3.92469">
        <ele>1082</ele>
        <time>2018-09-26T19:02:35Z</time>
      </trkpt>
      <trkpt lat="45.47401" lon="3.92493">
        <ele>1086</ele>
        <time>2018-09-26T19:03:35Z</time>
      </trkpt>
      <trkpt lat="45.47374" lon="3.92514">
        <ele>1089</ele>
        <time>2018-09-26T19:04:35Z</time>
      </trkpt>
      <trkpt lat="45.47349" lon="3.92523">
        <ele>1091</ele>
        <time>2018-09-26T19:05:35Z</time>
      </trkpt>
      <trkpt lat="45.47312" lon="3.92566">
        <ele>1097</ele>
        <time>2018-09-26T19:06:35Z</time>
      </trkpt>
      <trkpt lat="45.47295" lon="3.92585">
        <ele>1098</ele>
        <time>2018-09-26T19:07:35Z</time>
      </trkpt>
      <trkpt lat="45.47201" lon="3.9267">
        <ele>1105</ele>
        <time>2018-09-26T19:08:35Z</time>
      </trkpt>
      <trkpt lat="45.47187" lon="3.92695">
        <ele>1107</ele>
        <time>2018-09-26T19:09:35Z</time>
      </trkpt>
      <trkpt lat="45.47176" lon="3.92725">
        <ele>1110</ele>
        <time>2018-09-26T19:10:35Z</time>
      </trkpt>
      <trkpt lat="45.47181" lon="3.92761">
        <ele>1115</ele>
        <time>2018-09-26T19:11:35Z</time>
      </trkpt>
      <trkpt lat="45.47167" lon="3.92787">
        <ele>1118</ele>
        <time>2018-09-26T19:12:35Z</time>
      </trkpt>
      <trkpt lat="45.4715" lon="3.92822">
        <ele>1123</ele>
        <time>2018-09-26T19:13:35Z</time>
      </trkpt>
      <trkpt lat="45.47122" lon="3.92892">
        <ele>1133</ele>
        <time>2018-09-26T19:14:35Z</time>
      </trkpt>
      <trkpt lat="45.47079" lon="3.92988">
        <ele>1137</ele>
        <time>2018-09-26T19:15:35Z</time>
      </trkpt>
      <trkpt lat="45.4703" lon="3.93074">
        <ele>1141</ele>
        <time>2018-09-26T19:16:35Z</time>
      </trkpt>
      <trkpt lat="45.46987" lon="3.9316">
        <ele>1143</ele>
        <time>2018-09-26T19:17:35Z</time>
      </trkpt>
      <trkpt lat="45.46947" lon="3.93236">
        <ele>1146</ele>
        <time>2018-09-26T19:18:35Z</time>
      </trkpt>
      <trkpt lat="45.46844" lon="3.9339">
        <ele>1146</ele>
        <time>2018-09-26T19:19:35Z</time>
      </trkpt>
      <trkpt lat="45.46823" lon="3.93423">
        <ele>1147</ele>
        <time>2018-09-26T19:20:35Z</time>
      </trkpt>
      <trkpt lat="45.46811" lon="3.93426">
        <ele>1149</ele>
        <time>2018-09-26T19:21:35Z</time>
      </trkpt>
      <trkpt lat="45.46797" lon="3.93434">
        <ele>1151</ele>
        <time>2018-09-26T19:22:35Z</time>
      </trkpt>
      <trkpt lat="45.46786" lon="3.93418">
        <ele>1152</ele>
        <time>2018-09-26T19:23:35Z</time>
      </trkpt>
      <trkpt lat="45.46777" lon="3.93408">
        <ele>1153</ele>
        <time>2018-09-26T19:24:35Z</time>
      </trkpt>
      <trkpt lat="45.46752" lon="3.93429">
        <ele>1156</ele>
        <time>2018-09-26T19:25:35Z</time>
      </trkpt>
      <trkpt lat="45.46744" lon="3.93452">
        <ele>1155</ele>
        <time>2018-09-26T19:26:35Z</time>
      </trkpt>
      <trkpt lat="45.46729" lon="3.93484">
        <ele>1155</ele>
        <time>2018-09-26T19:27:35Z</time>
      </trkpt>
      <trkpt lat="45.46703" lon="3.93499">
        <ele>1157</ele>
        <time>2018-09-26T19:28:35Z</time>
      </trkpt>
      <trkpt lat="45.46652" lon="3.93523">
        <ele>1159</ele>
        <time>2018-09-26T19:29:35Z</time>
      </trkpt>
      <trkpt lat="45.46631" lon="3.93502">
        <ele>1160</ele>
        <time>2018-09-26T19:30:35Z</time>
      </trkpt>
      <trkpt lat="45.46604" lon="3.9349">
        <ele>1160</ele>
        <time>2018-09-26T19:31:35Z</time>
      </trkpt>
      <trkpt lat="45.46577" lon="3.93481">
        <ele>1161</ele>
        <time>2018-09-26T19:32:35Z</time>
      </trkpt>
      <trkpt lat="45.4655" lon="3.93479">
        <ele>1160</ele>
        <time>2018-09-26T19:33:35Z</time>
      </trkpt>
      <trkpt lat="45.46527" lon="3.93488">
        <ele>1159</ele>
        <time>2018-09-26T19:34:35Z</time>
      </trkpt>
      <trkpt lat="45.46503" lon="3.93506">
        <ele>1158</ele>
        <time>2018-09-26T19:35:35Z</time>
      </trkpt>
      <trkpt lat="45.46484" lon="3.93491">
        <ele>1158</ele>
        <time>2018-09-26T19:36:35Z</time>
      </trkpt>
      <trkpt lat="45.4646" lon="3.93481">
        <ele>1157</ele>
        <time>2018-09-26T19:37:35Z</time>
      </trkpt>
      <trkpt lat="45.46436" lon="3.93467">
        <ele>1156</ele>
        <time>2018-09-26T19:38:35Z</time>
      </trkpt>
      <trkpt lat="45.46408" lon="3.93446">
        <ele>1156</ele>
        <time>2018-09-26T19:39:35Z</time>
      </trkpt>
      <trkpt lat="45.46387" lon="3.93426">
        <ele>1156</ele>
        <time>2018-09-26T19:40:35Z</time>
      </trkpt>
      <trkpt lat="45.46376" lon="3.93418">
        <ele>1155</ele>
        <time>2018-09-26T19:41:35Z</time>
      </trkpt>
      <trkpt lat="45.46333" lon="3.93397">
        <ele>1153</ele>
        <time>2018-09-26T19:42:35Z</time>
      </trkpt>
      <trkpt lat="45.46299" lon="3.93491">
        <ele>1142</ele>
        <time>2018-09-26T19:43:35Z</time>
      </trkpt>
      <trkpt lat="45.46281" lon="3.93572">
        <ele>1141</ele>
        <time>2018-09-26T19:44:35Z</time>
      </trkpt>
      <trkpt lat="45.46276" lon="3.93631">
        <ele>1142</ele>
        <time>2018-09-26T19:45:35Z</time>
      </trkpt>
      <trkpt lat="45.46263" lon="3.93705">
        <ele>1142</ele>
        <time>2018-09-26T19:46:35Z</time>
      </trkpt>
      <trkpt lat="45.46246" lon="3.93749">
        <ele>1142</ele>
        <time>2018-09-26T19:47:35Z</time>
      </trkpt>
      <trkpt lat="45.46222" lon="3.93795">
        <ele>1136</ele>
        <time>2018-09-26T19:48:35Z</time>
      </trkpt>
      <trkpt lat="45.46179" lon="3.93827">
        <ele>1133</ele>
        <time>2018-09-26T19:49:35Z</time>
      </trkpt>
      <trkpt lat="45.46174" lon="3.93854">
        <ele>1134</ele>
        <time>2018-09-26T19:50:35Z</time>
      </trkpt>
      <trkpt lat="45.46158" lon="3.93874">
        <ele>1134</ele>
        <time>2018-09-26T19:51:35Z</time>
      </trkpt>
      <trkpt lat="45.46142" lon="3.93902">
        <ele>1134</ele>
        <time>2018-09-26T19:52:35Z</time>
      </trkpt>
      <trkpt lat="45.46131" lon="3.93915">
        <ele>1134</ele>
        <time>2018-09-26T19:53:35Z</time>
      </trkpt>
      <trkpt lat="45.46094" lon="3.93925">
        <ele>1133</ele>
        <time>2018-09-26T19:54:35Z</time>
      </trkpt>
      <trkpt lat="45.46076" lon="3.93936">
        <ele>1132</ele>
        <time>2018-09-26T19:55:35Z</time>
      </trkpt>
      <trkpt lat="45.46057" lon="3.93948">
        <ele>1132</ele>
        <time>2018-09-26T19:56:35Z</time>
      </trkpt>
      <trkpt lat="45.46009" lon="3.93997">
        <ele>1134</ele>
        <time>2018-09-26T19:57:35Z</time>
      </trkpt>
      <trkpt lat="45.45971" lon="3.94068">
        <ele>1135</ele>
        <time>2018-09-26T19:58:35Z</time>
      </trkpt>
      <trkpt lat="45.45968" lon="3.94189">
        <ele>1146</ele>
        <time>2018-09-26T19:59:35Z</time>
      </trkpt>
      <trkpt lat="45.45917" lon="3.94321">
        <ele>1161</ele>
        <time>2018-09-26T20:00:35Z</time>
      </trkpt>
      <trkpt lat="45.45889" lon="3.94406">
        <ele>1162</ele>
        <time>2018-09-26T20:01:35Z</time>
      </trkpt>
      <trkpt lat="45.45875" lon="3.94491">
        <ele>1159</ele>
        <time>2018-09-26T20:02:35Z</time>
      </trkpt>
      <trkpt lat="45.45885" lon="3.94611">
        <ele>1156</ele>
        <time>2018-09-26T20:03:35Z</time>
      </trkpt>
      <trkpt lat="45.45895" lon="3.94678">
        <ele>1158</ele>
        <time>2018-09-26T20:04:35Z</time>
      </trkpt>
      <trkpt lat="45.4589" lon="3.94731">
        <ele>1158</ele>
        <time>2018-09-26T20:05:35Z</time>
      </trkpt>
      <trkpt lat="45.4588" lon="3.94763">
        <ele>1158</ele>
        <time>2018-09-26T20:06:35Z</time>
      </trkpt>
      <trkpt lat="45.4586" lon="3.94792">
        <ele>1156</ele>
        <time>2018-09-26T20:07:35Z</time>
      </trkpt>
      <trkpt lat="45.45834" lon="3.94808">
        <ele>1154</ele>
        <time>2018-09-26T20:08:35Z</time>
      </trkpt>
      <trkpt lat="45.45805" lon="3.94857">
        <ele>1152</ele>
        <time>2018-09-26T20:09:35Z</time>
      </trkpt>
      <trkpt lat="45.45785" lon="3.94942">
        <ele>1155</ele>
        <time>2018-09-26T20:10:35Z</time>
      </trkpt>
      <trkpt lat="45.45761" lon="3.94968">
        <ele>1154</ele>
        <time>2018-09-26T20:11:35Z</time>
      </trkpt>
      <trkpt lat="45.45784" lon="3.95025">
        <ele>1157</ele>
        <time>2018-09-26T20:12:35Z</time>
      </trkpt>
      <trkpt lat="45.45788" lon="3.95053">
        <ele>1158</ele>
        <time>2018-09-26T20:13:35Z</time>
      </trkpt>
      <trkpt lat="45.45793" lon="3.95094">
        <ele>1159</ele>
        <time>2018-09-26T20:14:35Z</time>
      </trkpt>
      <trkpt lat="45.45773" lon="3.95141">
        <ele>1161</ele>
        <time>2018-09-26T20:15:35Z</time>
      </trkpt>
      <trkpt lat="45.45741" lon="3.95206">
        <ele>1164</ele>
        <time>2018-09-26T20:16:35Z</time>
      </trkpt>
      <trkpt lat="45.45696" lon="3.95251">
        <ele>1168</ele>
        <time>2018-09-26T20:17:35Z</time>
      </trkpt>
      <trkpt lat="45.45658" lon="3.95324">
        <ele>1172</ele>
        <time>2018-09-26T20:18:35Z</time>
      </trkpt>
      <trkpt lat="45.4562" lon="3.95374">
        <ele>1175</ele>
        <time>2018-09-26T20:19:35Z</time>
      </trkpt>
      <trkpt lat="45.45541" lon="3.95426">
        <ele>1180</ele>
        <time>2018-09-26T20:20:35Z</time>
      </trkpt>
      <trkpt lat="45.45362" lon="3.95555">
        <ele>1187</ele>
        <time>2018-09-26T20:21:35Z</time>
      </trkpt>
      <trkpt lat="45.45316" lon="3.9559">
        <ele>1190</ele>
        <time>2018-09-26T20:22:35Z</time>
      </trkpt>
      <trkpt lat="45.45273" lon="3.95693">
        <ele>1195</ele>
        <time>2018-09-26T20:23:35Z</time>
      </trkpt>
      <trkpt lat="45.45269" lon="3.95737">
        <ele>1195</ele>
        <time>2018-09-26T20:24:35Z</time>
      </trkpt>
      <trkpt lat="45.45273" lon="3.95795">
        <ele>1195</ele>
        <time>2018-09-26T20:25:35Z</time>
      </trkpt>
      <trkpt lat="45.45297" lon="3.95842">
        <ele>1193</ele>
        <time>2018-09-26T20:26:35Z</time>
      </trkpt>
      <trkpt lat="45.45354" lon="3.95901">
        <ele>1188</ele>
        <time>2018-09-26T20:27:35Z</time>
      </trkpt>
      <trkpt lat="45.45396" lon="3.95931">
        <ele>1187</ele>
        <time>2018-09-26T20:28:35Z</time>
      </trkpt>
      <trkpt lat="45.45458" lon="3.95981">
        <ele>1184</ele>
        <time>2018-09-26T20:29:35Z</time>
      </trkpt>
      <trkpt lat="45.45516" lon="3.96046">
        <ele>1176</ele>
        <time>2018-09-26T20:30:35Z</time>
      </trkpt>
      <trkpt lat="45.45593" lon="3.9611">
        <ele>1163</ele>
        <time>2018-09-26T20:31:35Z</time>
      </trkpt>
      <trkpt lat="45.45664" lon="3.96162">
        <ele>1160</ele>
        <time>2018-09-26T20:32:35Z</time>
      </trkpt>
      <trkpt lat="45.4569" lon="3.96157">
        <ele>1160</ele>
        <time>2018-09-26T20:33:35Z</time>
      </trkpt>
      <trkpt lat="45.45745" lon="3.96142">
        <ele>1160</ele>
        <time>2018-09-26T20:34:35Z</time>
      </trkpt>
      <trkpt lat="45.45783" lon="3.9614">
        <ele>1160</ele>
        <time>2018-09-26T20:35:35Z</time>
      </trkpt>
      <trkpt lat="45.45809" lon="3.96171">
        <ele>1161</ele>
        <time>2018-09-26T20:36:35Z</time>
      </trkpt>
      <trkpt lat="45.45822" lon="3.96201">
        <ele>1161</ele>
        <time>2018-09-26T20:37:35Z</time>
      </trkpt>
      <trkpt lat="45.45824" lon="3.96244">
        <ele>1161</ele>
        <time>2018-09-26T20:38:35Z</time>
      </trkpt>
      <trkpt lat="45.45806" lon="3.96304">
        <ele>1160</ele>
        <time>2018-09-26T20:39:35Z</time>
      </trkpt>
      <trkpt lat="45.45784" lon="3.96359">
        <ele>1160</ele>
        <time>2018-09-26T20:40:35Z</time>
      </trkpt>
      <trkpt lat="45.45764" lon="3.96418">
        <ele>1159</ele>
        <time>2018-09-26T20:41:35Z</time>
      </trkpt>
      <trkpt lat="45.45759" lon="3.96473">
        <ele>1159</ele>
        <time>2018-09-26T20:42:35Z</time>
      </trkpt>
      <trkpt lat="45.45766" lon="3.96544">
        <ele>1157</ele>
        <time>2018-09-26T20:43:35Z</time>
      </trkpt>
      <trkpt lat="45.45776" lon="3.96602">
        <ele>1155</ele>
        <time>2018-09-26T20:44:35Z</time>
      </trkpt>
      <trkpt lat="45.45782" lon="3.96665">
        <ele>1151</ele>
        <time>2018-09-26T20:45:35Z</time>
      </trkpt>
      <trkpt lat="45.45794" lon="3.96744">
        <ele>1147</ele>
        <time>2018-09-26T20:46:35Z</time>
      </trkpt>
      <trkpt lat="45.45791" lon="3.96819">
        <ele>1142</ele>
        <time>2018-09-26T20:47:35Z</time>
      </trkpt>
      <trkpt lat="45.45795" lon="3.96841">
        <ele>1141</ele>
        <time>2018-09-26T20:48:35Z</time>
      </trkpt>
      <trkpt lat="45.45821" lon="3.96876">
        <ele>1139</ele>
        <time>2018-09-26T20:49:35Z</time>
      </trkpt>
      <trkpt lat="45.45846" lon="3.96892">
        <ele>1136</ele>
        <time>2018-09-26T20:50:35Z</time>
      </trkpt>
      <trkpt lat="45.45893" lon="3.96864">
        <ele>1133</ele>
        <time>2018-09-26T20:51:35Z</time>
      </trkpt>
      <trkpt lat="45.4594" lon="3.96875">
        <ele>1126</ele>
        <time>2018-09-26T20:52:35Z</time>
      </trkpt>
      <trkpt lat="45.45976" lon="3.96888">
        <ele>1120</ele>
        <time>2018-09-26T20:53:35Z</time>
      </trkpt>
      <trkpt lat="45.46029" lon="3.96913">
        <ele>1113</ele>
        <time>2018-09-26T20:54:35Z</time>
      </trkpt>
      <trkpt lat="45.46171" lon="3.9701">
        <ele>1099</ele>
        <time>2018-09-26T20:55:35Z</time>
      </trkpt>
      <trkpt lat="45.46129" lon="3.97052">
        <ele>1091</ele>
        <time>2018-09-26T20:56:35Z</time>
      </trkpt>
      <trkpt lat="45.46112" lon="3.97113">
        <ele>1078</ele>
        <time>2018-09-26T20:57:35Z</time>
      </trkpt>
      <trkpt lat="45.46105" lon="3.97166">
        <ele>1068</ele>
        <time>2018-09-26T20:58:35Z</time>
      </trkpt>
      <trkpt lat="45.46108" lon="3.972">
        <ele>1063</ele>
        <time>2018-09-26T20:59:35Z</time>
      </trkpt>
      <trkpt lat="45.46096" lon="3.97236">
        <ele>1058</ele>
        <time>2018-09-26T21:00:35Z</time>
      </trkpt>
      <trkpt lat="45.46092" lon="3.97283">
        <ele>1057</ele>
        <time>2018-09-26T21:01:35Z</time>
      </trkpt>
      <trkpt lat="45.4608" lon="3.97307">
        <ele>1057</ele>
        <time>2018-09-26T21:02:35Z</time>
      </trkpt>
      <trkpt lat="45.46045" lon="3.9731">
        <ele>1058</ele>
        <time>2018-09-26T21:03:35Z</time>
      </trkpt>
      <trkpt lat="45.46017" lon="3.97328">
        <ele>1056</ele>
        <time>2018-09-26T21:04:35Z</time>
      </trkpt>
      <trkpt lat="45.45996" lon="3.97345">
        <ele>1055</ele>
        <time>2018-09-26T21:05:35Z</time>
      </trkpt>
      <trkpt lat="45.45998" lon="3.97369">
        <ele>1056</ele>
        <time>2018-09-26T21:06:35Z</time>
      </trkpt>
      <trkpt lat="45.45975" lon="3.97403">
        <ele>1056</ele>
        <time>2018-09-26T21:07:35Z</time>
      </trkpt>
      <trkpt lat="45.45958" lon="3.9743">
        <ele>1054</ele>
        <time>2018-09-26T21:08:35Z</time>
      </trkpt>
      <trkpt lat="45.45938" lon="3.97476">
        <ele>1052</ele>
        <time>2018-09-26T21:09:35Z</time>
      </trkpt>
      <trkpt lat="45.45904" lon="3.97536">
        <ele>1051</ele>
        <time>2018-09-26T21:10:35Z</time>
      </trkpt>
      <trkpt lat="45.45862" lon="3.97596">
        <ele>1048</ele>
        <time>2018-09-26T21:11:35Z</time>
      </trkpt>
      <trkpt lat="45.45848" lon="3.97629">
        <ele>1045</ele>
        <time>2018-09-26T21:12:35Z</time>
      </trkpt>
      <trkpt lat="45.45848" lon="3.97655">
        <ele>1045</ele>
        <time>2018-09-26T21:13:35Z</time>
      </trkpt>
      <trkpt lat="45.45852" lon="3.97732">
        <ele>1041</ele>
        <time>2018-09-26T21:14:35Z</time>
      </trkpt>
      <trkpt lat="45.45852" lon="3.97784">
        <ele>1037</ele>
        <time>2018-09-26T21:15:35Z</time>
      </trkpt>
      <trkpt lat="45.4585" lon="3.97849">
        <ele>1034</ele>
        <time>2018-09-26T21:16:35Z</time>
      </trkpt>
      <trkpt lat="45.4585" lon="3.97911">
        <ele>1035</ele>
        <time>2018-09-26T21:17:35Z</time>
      </trkpt>
      <trkpt lat="45.45854" lon="3.97948">
        <ele>1034</ele>
        <time>2018-09-26T21:18:35Z</time>
      </trkpt>
      <trkpt lat="45.45877" lon="3.97982">
        <ele>1036</ele>
        <time>2018-09-26T21:19:35Z</time>
      </trkpt>
      <trkpt lat="45.45892" lon="3.98023">
        <ele>1035</ele>
        <time>2018-09-26T21:20:35Z</time>
      </trkpt>
      <trkpt lat="45.45902" lon="3.98055">
        <ele>1034</ele>
        <time>2018-09-26T21:21:35Z</time>
      </trkpt>
      <trkpt lat="45.45915" lon="3.98066">
        <ele>1035</ele>
        <time>2018-09-26T21:22:35Z</time>
      </trkpt>
      <trkpt lat="45.45955" lon="3.98048">
        <ele>1037</ele>
        <time>2018-09-26T21:23:35Z</time>
      </trkpt>
      <trkpt lat="45.45991" lon="3.98042">
        <ele>1037</ele>
        <time>2018-09-26T21:24:35Z</time>
      </trkpt>
      <trkpt lat="45.46047" lon="3.98067">
        <ele>1036</ele>
        <time>2018-09-26T21:25:35Z</time>
      </trkpt>
      <trkpt lat="45.46117" lon="3.98045">
        <ele>1037</ele>
        <time>2018-09-26T21:26:35Z</time>
      </trkpt>
      <trkpt lat="45.46205" lon="3.98063">
        <ele>1044</ele>
        <time>2018-09-26T21:27:35Z</time>
      </trkpt>
      <trkpt lat="45.46256" lon="3.98073">
        <ele>1051</ele>
        <time>2018-09-26T21:28:35Z</time>
      </trkpt>
      <trkpt lat="45.46288" lon="3.98061">
        <ele>1056</ele>
        <time>2018-09-26T21:29:35Z</time>
      </trkpt>
      <trkpt lat="45.46298" lon="3.98116">
        <ele>1056</ele>
        <time>2018-09-26T21:30:35Z</time>
      </trkpt>
      <trkpt lat="45.46323" lon="3.98187">
        <ele>1055</ele>
        <time>2018-09-26T21:31:35Z</time>
      </trkpt>
      <trkpt lat="45.46355" lon="3.98227">
        <ele>1047</ele>
        <time>2018-09-26T21:32:35Z</time>
      </trkpt>
      <trkpt lat="45.46393" lon="3.98216">
        <ele>1039</ele>
        <time>2018-09-26T21:33:35Z</time>
      </trkpt>
      <trkpt lat="45.46439" lon="3.98175">
        <ele>1037</ele>
        <time>2018-09-26T21:34:35Z</time>
      </trkpt>
      <trkpt lat="45.46457" lon="3.98152">
        <ele>1038</ele>
        <time>2018-09-26T21:35:35Z</time>
      </trkpt>
      <trkpt lat="45.46475" lon="3.98124">
        <ele>1041</ele>
        <time>2018-09-26T21:36:35Z</time>
      </trkpt>
      <trkpt lat="45.46504" lon="3.98137">
        <ele>1037</ele>
        <time>2018-09-26T21:37:35Z</time>
      </trkpt>
      <trkpt lat="45.46512" lon="3.98166">
        <ele>1034</ele>
        <time>2018-09-26T21:38:35Z</time>
      </trkpt>
      <trkpt lat="45.46519" lon="3.98218">
        <ele>1034</ele>
        <time>2018-09-26T21:39:35Z</time>
      </trkpt>
      <trkpt lat="45.46517" lon="3.98251">
        <ele>1034</ele>
        <time>2018-09-26T21:40:35Z</time>
      </trkpt>
      <trkpt lat="45.46527" lon="3.98269">
        <ele>1036</ele>
        <time>2018-09-26T21:41:35Z</time>
      </trkpt>
      <trkpt lat="45.46497" lon="3.98295">
        <ele>1034</ele>
        <time>2018-09-26T21:42:35Z</time>
      </trkpt>
      <trkpt lat="45.46501" lon="3.98359">
        <ele>1040</ele>
        <time>2018-09-26T21:43:35Z</time>
      </trkpt>
      <trkpt lat="45.46499" lon="3.98381">
        <ele>1043</ele>
        <time>2018-09-26T21:44:35Z</time>
      </trkpt>
      <trkpt lat="45.46488" lon="3.9841">
        <ele>1044</ele>
        <time>2018-09-26T21:45:35Z</time>
      </trkpt>
      <trkpt lat="45.46477" lon="3.98445">
        <ele>1045</ele>
        <time>2018-09-26T21:46:35Z</time>
      </trkpt>
      <trkpt lat="45.46469" lon="3.98491">
        <ele>1048</ele>
        <time>2018-09-26T21:47:35Z</time>
      </trkpt>
      <trkpt lat="45.46472" lon="3.98532">
        <ele>1051</ele>
        <time>2018-09-26T21:48:35Z</time>
      </trkpt>
      <trkpt lat="45.46471" lon="3.98556">
        <ele>1053</ele>
        <time>2018-09-26T21:49:35Z</time>
      </trkpt>
      <trkpt lat="45.46458" lon="3.98588">
        <ele>1055</ele>
        <time>2018-09-26T21:50:35Z</time>
      </trkpt>
      <trkpt lat="45.46427" lon="3.98605">
        <ele>1056</ele>
        <time>2018-09-26T21:51:35Z</time>
      </trkpt>
      <trkpt lat="45.46413" lon="3.98638">
        <ele>1060</ele>
        <time>2018-09-26T21:52:35Z</time>
      </trkpt>
      <trkpt lat="45.46371" lon="3.98708">
        <ele>1061</ele>
        <time>2018-09-26T21:53:35Z</time>
      </trkpt>
      <trkpt lat="45.46348" lon="3.98749">
        <ele>1063</ele>
        <time>2018-09-26T21:54:35Z</time>
      </trkpt>
      <trkpt lat="45.46331" lon="3.98793">
        <ele>1066</ele>
        <time>2018-09-26T21:55:35Z</time>
      </trkpt>
      <trkpt lat="45.46309" lon="3.98829">
        <ele>1067</ele>
        <time>2018-09-26T21:56:35Z</time>
      </trkpt>
      <trkpt lat="45.46303" lon="3.98843">
        <ele>1068</ele>
        <time>2018-09-26T21:57:35Z</time>
      </trkpt>
    </trkseg>
  </trk>
</gpx>